Terminal Aerodrome Forecast
Issued by NWS Quad Cities IA IL

Home | Current Version | Previous Version | Text Only | Print | Product List | Glossary On
Versions: 1 2 3 4 5 6 7 8 9 10 11 12 13 14 15
624
FTUS43 KDVN 161920 AAA
TAFDBQ
TAF AMD
KDBQ 161920Z 1619/1718 14013KT P6SM SCT120 BKN250
     FM162100 15010KT P6SM SCT120 BKN250
     FM170400 18006KT P6SM SCT250
     FM171400 22009KT P6SM SCT250=

USA.gov is the U.S. government's official web portal to all federal, state and local government web resources and services.